Terminal Aerodrome Forecast
Issued by NWS

Home | Current Version | Previous Version | Text Only | Print | Product List | Glossary On
Versions: 1 2 3 4 5 6 7 8 9 10 11 12 13 14 15 16
000
FTUS45 KVEF 301138
TAFDAG
TAF
KDAG 301138Z 3012/0112 26008KT P6SM SCT150 BKN200
     FM301600 31008KT P6SM SCT150 BKN200
     FM301900 06008KT P6SM SCT120 SCT150
     FM010100 26014KT P6SM SCT120 SCT150=

USA.gov is the U.S. government's official web portal to all federal, state and local government web resources and services.